sensor_id;sensor_type;location;lat;lon;timestamp;temperature;humidity
17346;DHT22;8790;53.590;10.002;2022-11-20T00:01:54;3.30;99.90
17346;DHT22;8790;53.590;10.002;2022-11-20T00:04:25;3.30;99.90
17346;DHT22;8790;53.590;10.002;2022-11-20T00:06:57;3.40;99.90
17346;DHT22;8790;53.590;10.002;2022-11-20T00:09:29;3.40;99.90
17346;DHT22;8790;53.590;10.002;2022-11-20T00:12:00;3.30;99.90
17346;DHT22;8790;53.590;10.002;2022-11-20T00:14:32;3.40;99.90
17346;DHT22;8790;53.590;10.002;2022-11-20T00:17:05;3.40;99.90
17346;DHT22;8790;53.590;10.002;2022-11-20T00:19:37;3.40;99.90
17346;DHT22;8790;53.590;10.002;2022-11-20T00:22:09;3.30;99.90
17346;DHT22;8790;53.590;10.002;2022-11-20T00:24:41;3.30;99.90
17346;DHT22;8790;53.590;10.002;2022-11-20T00:27:12;3.30;99.90
17346;DHT22;8790;53.590;10.002;2022-11-20T00:29:44;3.30;99.90
17346;DHT22;8790;53.590;10.002;2022-11-20T00:32:17;3.40;99.90
17346;DHT22;8790;53.590;10.002;2022-11-20T00:34:49;3.40;99.90
17346;DHT22;8790;53.590;10.002;2022-11-20T00:37:21;3.30;99.90
17346;DHT22;8790;53.590;10.002;2022-11-20T00:39:53;3.40;99.90
17346;DHT22;8790;53.590;10.002;2022-11-20T00:42:24;3.40;99.90
17346;DHT22;8790;53.590;10.002;2022-11-20T00:44:56;3.40;99.90
17346;DHT22;8790;53.590;10.002;2022-11-20T00:47:29;3.40;99.90
17346;DHT22;8790;53.590;10.002;2022-11-20T00:50:01;3.40;99.90
17346;DHT22;8790;53.590;10.002;2022-11-20T00:52:32;3.40;99.90
17346;DHT22;8790;53.590;10.002;2022-11-20T00:55:05;3.40;99.90
17346;DHT22;8790;53.590;10.002;2022-11-20T00:57:37;3.40;99.90
17346;DHT22;8790;53.590;10.002;2022-11-20T01:00:09;3.40;99.90
17346;DHT22;8790;53.590;10.002;2022-11-20T01:02:42;3.30;99.90
17346;DHT22;8790;53.590;10.002;2022-11-20T01:05:14;3.40;99.90
17346;DHT22;8790;53.590;10.002;2022-11-20T01:07:46;3.40;99.90
17346;DHT22;8790;53.590;10.002;2022-11-20T01:10:17;3.30;99.90
17346;DHT22;8790;53.590;10.002;2022-11-20T01:12:49;3.40;99.90
17346;DHT22;8790;53.590;10.002;2022-11-20T01:15:41;3.30;99.90
17346;DHT22;8790;53.590;10.002;2022-11-20T01:18:14;3.30;99.90
17346;DHT22;8790;53.590;10.002;2022-11-20T01:20:46;3.30;99.90
17346;DHT22;8790;53.590;10.002;2022-11-20T01:23:18;3.40;99.90
17346;DHT22;8790;53.590;10.002;2022-11-20T01:25:49;3.40;99.90
17346;DHT22;8790;53.590;10.002;2022-11-20T01:28:21;3.40;99.90
17346;DHT22;8790;53.590;10.002;2022-11-20T01:30:53;3.30;99.90
17346;DHT22;8790;53.590;10.002;2022-11-20T01:33:26;3.30;99.90
17346;DHT22;8790;53.590;10.002;2022-11-20T01:36:03;3.30;99.90
17346;DHT22;8790;53.590;10.002;2022-11-20T01:38:36;3.30;99.90
17346;DHT22;8790;53.590;10.002;2022-11-20T01:41:09;3.30;99.90
17346;DHT22;8790;53.590;10.002;2022-11-20T01:43:41;3.30;99.90
17346;DHT22;8790;53.590;10.002;2022-11-20T01:46:16;3.30;99.90
17346;DHT22;8790;53.590;10.002;2022-11-20T01:48:53;3.30;99.90
17346;DHT22;8790;53.590;10.002;2022-11-20T01:51:29;3.30;99.90
17346;DHT22;8790;53.590;10.002;2022-11-20T01:54:05;3.30;99.90
17346;DHT22;8790;53.590;10.002;2022-11-20T01:56:40;3.20;99.90
17346;DHT22;8790;53.590;10.002;2022-11-20T01:59:16;3.20;99.90
17346;DHT22;8790;53.590;10.002;2022-11-20T02:01:49;3.30;99.90
17346;DHT22;8790;53.590;10.002;2022-11-20T02:04:23;3.20;99.90
17346;DHT22;8790;53.590;10.002;2022-11-20T02:06:58;3.30;99.90
17346;DHT22;8790;53.590;10.002;2022-11-20T02:09:31;3.30;99.90
17346;DHT22;8790;53.590;10.002;2022-11-20T02:12:03;3.20;99.90
17346;DHT22;8790;53.590;10.002;2022-11-20T02:14:35;3.30;99.90
17346;DHT22;8790;53.590;10.002;2022-11-20T02:17:06;3.30;99.90
17346;DHT22;8790;53.590;10.002;2022-11-20T02:19:39;3.30;99.90
17346;DHT22;8790;53.590;10.002;2022-11-20T02:22:14;3.20;99.90
17346;DHT22;8790;53.590;10.002;2022-11-20T02:24:51;3.30;99.90
17346;DHT22;8790;53.590;10.002;2022-11-20T02:27:23;3.30;99.90
17346;DHT22;8790;53.590;10.002;2022-11-20T02:29:58;3.30;99.90
17346;DHT22;8790;53.590;10.002;2022-11-20T02:32:32;3.30;99.90
17346;DHT22;8790;53.590;10.002;2022-11-20T02:35:10;3.20;99.90
17346;DHT22;8790;53.590;10.002;2022-11-20T02:38:02;3.20;99.90
17346;DHT22;8790;53.590;10.002;2022-11-20T02:40:35;3.20;99.90
17346;DHT22;8790;53.590;10.002;2022-11-20T02:43:07;3.20;99.90
17346;DHT22;8790;53.590;10.002;2022-11-20T02:45:39;3.20;99.90
17346;DHT22;8790;53.590;10.002;2022-11-20T02:48:11;3.30;99.90
17346;DHT22;8790;53.590;10.002;2022-11-20T02:50:43;3.30;99.90
17346;DHT22;8790;53.590;10.002;2022-11-20T02:53:15;3.30;99.90
17346;DHT22;8790;53.590;10.002;2022-11-20T02:55:48;3.30;99.90
17346;DHT22;8790;53.590;10.002;2022-11-20T02:58:19;3.30;99.90
17346;DHT22;8790;53.590;10.002;2022-11-20T03:00:52;3.20;99.90
17346;DHT22;8790;53.590;10.002;2022-11-20T03:03:24;3.30;99.90
17346;DHT22;8790;53.590;10.002;2022-11-20T03:05:58;3.20;99.90
17346;DHT22;8790;53.590;10.002;2022-11-20T03:08:29;3.30;99.90
17346;DHT22;8790;53.590;10.002;2022-11-20T03:11:07;3.30;99.90
17346;DHT22;8790;53.590;10.002;2022-11-20T03:13:38;3.20;99.90
17346;DHT22;8790;53.590;10.002;2022-11-20T03:16:13;3.30;99.90
17346;DHT22;8790;53.590;10.002;2022-11-20T03:18:45;3.30;99.90
17346;DHT22;8790;53.590;10.002;2022-11-20T03:21:19;3.30;99.90
17346;DHT22;8790;53.590;10.002;2022-11-20T03:23:51;3.30;99.90
17346;DHT22;8790;53.590;10.002;2022-11-20T03:26:26;3.30;99.90
17346;DHT22;8790;53.590;10.002;2022-11-20T03:28:59;3.30;99.90
17346;DHT22;8790;53.590;10.002;2022-11-20T03:31:33;3.30;99.90
17346;DHT22;8790;53.590;10.002;2022-11-20T03:34:06;3.30;99.90
17346;DHT22;8790;53.590;10.002;2022-11-20T03:36:38;3.30;99.90
17346;DHT22;8790;53.590;10.002;2022-11-20T03:39:10;3.30;99.90
17346;DHT22;8790;53.590;10.002;2022-11-20T03:41:43;3.30;99.90
17346;DHT22;8790;53.590;10.002;2022-11-20T03:44:15;3.30;99.90
17346;DHT22;8790;53.590;10.002;2022-11-20T03:46:46;3.30;99.90
17346;DHT22;8790;53.590;10.002;2022-11-20T03:49:18;3.30;99.90
17346;DHT22;8790;53.590;10.002;2022-11-20T03:51:50;3.30;99.90
17346;DHT22;8790;53.590;10.002;2022-11-20T03:54:21;3.20;99.90
17346;DHT22;8790;53.590;10.002;2022-11-20T03:56:54;3.30;99.90
17346;DHT22;8790;53.590;10.002;2022-11-20T03:59:26;3.30;99.90
17346;DHT22;8790;53.590;10.002;2022-11-20T04:01:58;3.20;99.90
17346;DHT22;8790;53.590;10.002;2022-11-20T04:04:30;3.30;99.90
17346;DHT22;8790;53.590;10.002;2022-11-20T04:07:02;3.30;99.90
17346;DHT22;8790;53.590;10.002;2022-11-20T04:09:33;3.20;99.90
17346;DHT22;8790;53.590;10.002;2022-11-20T04:12:07;3.30;99.90
17346;DHT22;8790;53.590;10.002;2022-11-20T04:14:38;3.20;99.90
17346;DHT22;8790;53.590;10.002;2022-11-20T04:17:10;3.30;99.90
17346;DHT22;8790;53.590;10.002;2022-11-20T04:19:41;3.30;99.90
17346;DHT22;8790;53.590;10.002;2022-11-20T04:22:13;3.30;99.90
17346;DHT22;8790;53.590;10.002;2022-11-20T04:24:45;3.30;99.90
17346;DHT22;8790;53.590;10.002;2022-11-20T04:27:18;3.30;99.90
17346;DHT22;8790;53.590;10.002;2022-11-20T04:29:50;3.30;99.90
17346;DHT22;8790;53.590;10.002;2022-11-20T04:32:21;3.30;99.90
17346;DHT22;8790;53.590;10.002;2022-11-20T04:34:53;3.20;99.90
17346;DHT22;8790;53.590;10.002;2022-11-20T04:37:25;3.30;99.90
17346;DHT22;8790;53.590;10.002;2022-11-20T04:39:56;3.20;99.90
17346;DHT22;8790;53.590;10.002;2022-11-20T04:42:30;3.20;99.90
17346;DHT22;8790;53.590;10.002;2022-11-20T04:45:01;3.30;99.90
17346;DHT22;8790;53.590;10.002;2022-11-20T04:47:33;3.30;99.90
17346;DHT22;8790;53.590;10.002;2022-11-20T04:50:06;3.30;99.90
17346;DHT22;8790;53.590;10.002;2022-11-20T04:52:37;3.30;99.90
17346;DHT22;8790;53.590;10.002;2022-11-20T04:55:09;3.20;99.90
17346;DHT22;8790;53.590;10.002;2022-11-20T04:57:42;3.20;99.90
17346;DHT22;8790;53.590;10.002;2022-11-20T05:00:15;3.30;99.90
17346;DHT22;8790;53.590;10.002;2022-11-20T05:02:47;3.30;99.90
17346;DHT22;8790;53.590;10.002;2022-11-20T05:05:18;3.30;99.90
17346;DHT22;8790;53.590;10.002;2022-11-20T05:07:50;3.30;99.90
17346;DHT22;8790;53.590;10.002;2022-11-20T05:10:22;3.20;99.90
17346;DHT22;8790;53.590;10.002;2022-11-20T05:12:57;3.20;99.90
17346;DHT22;8790;53.590;10.002;2022-11-20T05:15:28;3.20;99.90
17346;DHT22;8790;53.590;10.002;2022-11-20T05:18:00;3.20;99.90
17346;DHT22;8790;53.590;10.002;2022-11-20T05:20:32;3.20;99.90
17346;DHT22;8790;53.590;10.002;2022-11-20T05:23:03;3.20;99.90
17346;DHT22;8790;53.590;10.002;2022-11-20T05:25:35;3.10;99.90
17346;DHT22;8790;53.590;10.002;2022-11-20T05:28:08;3.20;99.90
17346;DHT22;8790;53.590;10.002;2022-11-20T05:30:40;3.20;99.90
17346;DHT22;8790;53.590;10.002;2022-11-20T05:33:11;3.20;99.90
17346;DHT22;8790;53.590;10.002;2022-11-20T05:35:43;3.20;99.90
17346;DHT22;8790;53.590;10.002;2022-11-20T05:38:16;3.20;99.90
17346;DHT22;8790;53.590;10.002;2022-11-20T05:40:47;3.20;99.90
17346;DHT22;8790;53.590;10.002;2022-11-20T05:43:20;3.20;99.90
17346;DHT22;8790;53.590;10.002;2022-11-20T05:45:53;3.10;99.90
17346;DHT22;8790;53.590;10.002;2022-11-20T05:48:25;3.10;99.90
17346;DHT22;8790;53.590;10.002;2022-11-20T05:50:57;3.10;99.90
17346;DHT22;8790;53.590;10.002;2022-11-20T05:53:29;3.10;99.90
17346;DHT22;8790;53.590;10.002;2022-11-20T05:56:04;3.10;99.90
17346;DHT22;8790;53.590;10.002;2022-11-20T05:58:38;3.10;99.90
17346;DHT22;8790;53.590;10.002;2022-11-20T06:01:11;3.10;99.90
17346;DHT22;8790;53.590;10.002;2022-11-20T06:03:44;3.00;99.90
17346;DHT22;8790;53.590;10.002;2022-11-20T06:06:18;3.10;99.90
17346;DHT22;8790;53.590;10.002;2022-11-20T06:08:50;3.10;99.90
17346;DHT22;8790;53.590;10.002;2022-11-20T06:11:22;3.00;99.90
17346;DHT22;8790;53.590;10.002;2022-11-20T06:13:55;3.00;99.90
17346;DHT22;8790;53.590;10.002;2022-11-20T06:16:26;3.00;99.90
17346;DHT22;8790;53.590;10.002;2022-11-20T06:18:58;3.00;99.90
17346;DHT22;8790;53.590;10.002;2022-11-20T06:21:30;3.10;99.90
17346;DHT22;8790;53.590;10.002;2022-11-20T06:24:02;3.10;99.90
17346;DHT22;8790;53.590;10.002;2022-11-20T06:26:33;3.10;99.90
17346;DHT22;8790;53.590;10.002;2022-11-20T06:29:06;3.10;99.90
17346;DHT22;8790;53.590;10.002;2022-11-20T06:31:38;3.10;99.90
17346;DHT22;8790;53.590;10.002;2022-11-20T06:34:10;3.00;99.90
17346;DHT22;8790;53.590;10.002;2022-11-20T06:36:42;3.10;99.90
17346;DHT22;8790;53.590;10.002;2022-11-20T06:39:13;3.10;99.90
17346;DHT22;8790;53.590;10.002;2022-11-20T06:41:45;3.10;99.90
17346;DHT22;8790;53.590;10.002;2022-11-20T06:44:18;3.10;99.90
17346;DHT22;8790;53.590;10.002;2022-11-20T06:46:49;3.10;99.90
17346;DHT22;8790;53.590;10.002;2022-11-20T06:49:21;3.10;99.90
17346;DHT22;8790;53.590;10.002;2022-11-20T06:51:53;3.10;99.90
17346;DHT22;8790;53.590;10.002;2022-11-20T06:54:24;3.10;99.90
17346;DHT22;8790;53.590;10.002;2022-11-20T06:56:56;3.00;99.90
17346;DHT22;8790;53.590;10.002;2022-11-20T06:59:29;3.00;99.90
17346;DHT22;8790;53.590;10.002;2022-11-20T07:02:01;3.00;99.90
17346;DHT22;8790;53.590;10.002;2022-11-20T07:04:33;3.00;99.90
17346;DHT22;8790;53.590;10.002;2022-11-20T07:07:05;3.10;99.90
17346;DHT22;8790;53.590;10.002;2022-11-20T07:09:36;3.00;99.90
17346;DHT22;8790;53.590;10.002;2022-11-20T07:12:08;3.00;99.90
17346;DHT22;8790;53.590;10.002;2022-11-20T07:14:41;3.10;99.90
17346;DHT22;8790;53.590;10.002;2022-11-20T07:17:13;3.10;99.90
17346;DHT22;8790;53.590;10.002;2022-11-20T07:19:45;3.10;99.90
17346;DHT22;8790;53.590;10.002;2022-11-20T07:22:16;3.00;99.90
17346;DHT22;8790;53.590;10.002;2022-11-20T07:24:48;3.00;99.90
17346;DHT22;8790;53.590;10.002;2022-11-20T07:27:20;3.00;99.90
17346;DHT22;8790;53.590;10.002;2022-11-20T07:29:53;3.10;99.90
17346;DHT22;8790;53.590;10.002;2022-11-20T07:32:25;3.10;99.90
17346;DHT22;8790;53.590;10.002;2022-11-20T07:34:56;3.10;99.90
17346;DHT22;8790;53.590;10.002;2022-11-20T07:37:28;3.10;99.90
17346;DHT22;8790;53.590;10.002;2022-11-20T07:40:00;3.10;99.90
17346;DHT22;8790;53.590;10.002;2022-11-20T07:42:31;3.10;99.90
17346;DHT22;8790;53.590;10.002;2022-11-20T07:45:06;3.10;99.90
17346;DHT22;8790;53.590;10.002;2022-11-20T07:47:37;3.10;99.90
17346;DHT22;8790;53.590;10.002;2022-11-20T07:50:09;3.10;99.90
17346;DHT22;8790;53.590;10.002;2022-11-20T07:52:41;3.00;99.90
17346;DHT22;8790;53.590;10.002;2022-11-20T07:55:13;3.00;99.90
17346;DHT22;8790;53.590;10.002;2022-11-20T07:57:45;3.00;99.90
17346;DHT22;8790;53.590;10.002;2022-11-20T08:00:18;3.00;99.90
17346;DHT22;8790;53.590;10.002;2022-11-20T08:02:50;3.00;99.90
17346;DHT22;8790;53.590;10.002;2022-11-20T08:05:22;3.00;99.90
17346;DHT22;8790;53.590;10.002;2022-11-20T08:07:54;3.10;99.90
17346;DHT22;8790;53.590;10.002;2022-11-20T08:10:25;3.10;99.90
17346;DHT22;8790;53.590;10.002;2022-11-20T08:12:57;3.10;99.90
17346;DHT22;8790;53.590;10.002;2022-11-20T08:15:49;3.10;99.90
17346;DHT22;8790;53.590;10.002;2022-11-20T08:18:22;3.10;99.90
17346;DHT22;8790;53.590;10.002;2022-11-20T08:20:53;3.10;99.90
17346;DHT22;8790;53.590;10.002;2022-11-20T08:23:25;3.10;99.90
17346;DHT22;8790;53.590;10.002;2022-11-20T08:25:57;3.10;99.90
17346;DHT22;8790;53.590;10.002;2022-11-20T08:28:31;3.10;99.90
17346;DHT22;8790;53.590;10.002;2022-11-20T08:31:04;3.10;99.90
17346;DHT22;8790;53.590;10.002;2022-11-20T08:33:36;3.10;99.90
17346;DHT22;8790;53.590;10.002;2022-11-20T08:36:08;3.10;99.90
17346;DHT22;8790;53.590;10.002;2022-11-20T08:38:40;3.10;99.90
17346;DHT22;8790;53.590;10.002;2022-11-20T08:41:11;3.00;99.90
17346;DHT22;8790;53.590;10.002;2022-11-20T08:43:57;3.10;99.90
17346;DHT22;8790;53.590;10.002;2022-11-20T08:46:34;3.10;99.90
17346;DHT22;8790;53.590;10.002;2022-11-20T08:49:09;3.10;99.90
17346;DHT22;8790;53.590;10.002;2022-11-20T08:51:42;3.10;99.90
17346;DHT22;8790;53.590;10.002;2022-11-20T08:54:14;3.20;99.90
17346;DHT22;8790;53.590;10.002;2022-11-20T08:56:45;3.10;99.90
17346;DHT22;8790;53.590;10.002;2022-11-20T08:59:17;3.20;99.90
17346;DHT22;8790;53.590;10.002;2022-11-20T09:01:50;3.20;99.90
17346;DHT22;8790;53.590;10.002;2022-11-20T09:04:22;3.20;99.90
17346;DHT22;8790;53.590;10.002;2022-11-20T09:06:54;3.20;99.90
17346;DHT22;8790;53.590;10.002;2022-11-20T09:09:25;3.20;99.90
17346;DHT22;8790;53.590;10.002;2022-11-20T09:11:57;3.20;99.90
17346;DHT22;8790;53.590;10.002;2022-11-20T09:14:29;3.20;99.90
17346;DHT22;8790;53.590;10.002;2022-11-20T09:17:02;3.20;99.90
17346;DHT22;8790;53.590;10.002;2022-11-20T09:19:34;3.20;99.90
17346;DHT22;8790;53.590;10.002;2022-11-20T09:22:06;3.20;99.90
17346;DHT22;8790;53.590;10.002;2022-11-20T09:24:38;3.10;99.90
17346;DHT22;8790;53.590;10.002;2022-11-20T09:27:09;3.10;99.90
17346;DHT22;8790;53.590;10.002;2022-11-20T09:29:41;3.10;99.90
17346;DHT22;8790;53.590;10.002;2022-11-20T09:32:14;3.10;99.90
17346;DHT22;8790;53.590;10.002;2022-11-20T09:34:46;3.10;99.90
17346;DHT22;8790;53.590;10.002;2022-11-20T09:37:17;3.20;99.90
17346;DHT22;8790;53.590;10.002;2022-11-20T09:39:49;3.20;99.90
17346;DHT22;8790;53.590;10.002;2022-11-20T09:42:35;3.20;99.90
17346;DHT22;8790;53.590;10.002;2022-11-20T09:45:22;3.10;99.90
17346;DHT22;8790;53.590;10.002;2022-11-20T09:48:10;3.20;99.90
17346;DHT22;8790;53.590;10.002;2022-11-20T09:50:52;3.20;99.90
17346;DHT22;8790;53.590;10.002;2022-11-20T09:53:32;3.20;99.90
17346;DHT22;8790;53.590;10.002;2022-11-20T09:56:09;3.10;99.90
17346;DHT22;8790;53.590;10.002;2022-11-20T09:58:44;3.10;99.90
17346;DHT22;8790;53.590;10.002;2022-11-20T10:01:18;3.20;99.90
17346;DHT22;8790;53.590;10.002;2022-11-20T10:03:55;3.20;99.90
17346;DHT22;8790;53.590;10.002;2022-11-20T10:06:30;3.20;99.90
17346;DHT22;8790;53.590;10.002;2022-11-20T10:09:19;3.30;99.90
17346;DHT22;8790;53.590;10.002;2022-11-20T10:12:02;3.40;99.90
17346;DHT22;8790;53.590;10.002;2022-11-20T10:14:43;3.30;99.90
17346;DHT22;8790;53.590;10.002;2022-11-20T10:17:29;3.40;99.90
17346;DHT22;8790;53.590;10.002;2022-11-20T10:20:16;3.50;99.90
17346;DHT22;8790;53.590;10.002;2022-11-20T10:22:59;3.50;99.90
17346;DHT22;8790;53.590;10.002;2022-11-20T10:25:38;3.60;99.90
17346;DHT22;8790;53.590;10.002;2022-11-20T10:28:27;3.50;99.90
17346;DHT22;8790;53.590;10.002;2022-11-20T10:31:03;3.50;99.90
17346;DHT22;8790;53.590;10.002;2022-11-20T10:33:38;3.50;99.90
17346;DHT22;8790;53.590;10.002;2022-11-20T10:36:16;3.50;99.90
17346;DHT22;8790;53.590;10.002;2022-11-20T10:38:53;3.50;99.90
17346;DHT22;8790;53.590;10.002;2022-11-20T10:41:29;3.50;99.90
17346;DHT22;8790;53.590;10.002;2022-11-20T10:44:04;3.50;99.90
17346;DHT22;8790;53.590;10.002;2022-11-20T10:46:43;3.50;99.90
17346;DHT22;8790;53.590;10.002;2022-11-20T10:49:17;3.50;99.90
17346;DHT22;8790;53.590;10.002;2022-11-20T10:51:59;3.50;99.90
17346;DHT22;8790;53.590;10.002;2022-11-20T10:54:39;3.60;99.90
17346;DHT22;8790;53.590;10.002;2022-11-20T10:57:24;3.60;99.90
17346;DHT22;8790;53.590;10.002;2022-11-20T11:00:06;3.60;99.90
17346;DHT22;8790;53.590;10.002;2022-11-20T11:02:42;3.50;99.90
17346;DHT22;8790;53.590;10.002;2022-11-20T11:05:24;3.40;99.90
17346;DHT22;8790;53.590;10.002;2022-11-20T11:08:00;3.40;99.90
17346;DHT22;8790;53.590;10.002;2022-11-20T11:10:38;3.40;99.90
17346;DHT22;8790;53.590;10.002;2022-11-20T11:13:19;3.40;99.90
17346;DHT22;8790;53.590;10.002;2022-11-20T11:15:52;3.40;99.90
17346;DHT22;8790;53.590;10.002;2022-11-20T11:18:25;3.50;99.90
17346;DHT22;8790;53.590;10.002;2022-11-20T11:21:00;3.40;99.90
17346;DHT22;8790;53.590;10.002;2022-11-20T11:23:34;3.50;99.90
17346;DHT22;8790;53.590;10.002;2022-11-20T11:26:19;3.40;99.90
17346;DHT22;8790;53.590;10.002;2022-11-20T11:28:55;3.40;99.90
17346;DHT22;8790;53.590;10.002;2022-11-20T11:31:28;3.40;99.90
17346;DHT22;8790;53.590;10.002;2022-11-20T11:34:05;3.40;99.90
17346;DHT22;8790;53.590;10.002;2022-11-20T11:36:37;3.30;99.90
17346;DHT22;8790;53.590;10.002;2022-11-20T11:39:15;3.30;99.90
17346;DHT22;8790;53.590;10.002;2022-11-20T11:41:47;3.40;99.90
17346;DHT22;8790;53.590;10.002;2022-11-20T11:44:21;3.40;99.90
17346;DHT22;8790;53.590;10.002;2022-11-20T11:47:21;3.40;99.90
17346;DHT22;8790;53.590;10.002;2022-11-20T11:50:02;3.40;99.90
17346;DHT22;8790;53.590;10.002;2022-11-20T11:52:38;3.40;99.90
17346;DHT22;8790;53.590;10.002;2022-11-20T11:55:17;3.40;99.90
17346;DHT22;8790;53.590;10.002;2022-11-20T11:57:54;3.50;99.90
17346;DHT22;8790;53.590;10.002;2022-11-20T12:00:29;3.50;99.90
17346;DHT22;8790;53.590;10.002;2022-11-20T12:03:08;3.50;99.90
17346;DHT22;8790;53.590;10.002;2022-11-20T12:05:44;3.50;99.90
17346;DHT22;8790;53.590;10.002;2022-11-20T12:08:22;3.60;99.90
17346;DHT22;8790;53.590;10.002;2022-11-20T12:10:59;3.60;99.90
17346;DHT22;8790;53.590;10.002;2022-11-20T12:13:44;3.60;99.90
17346;DHT22;8790;53.590;10.002;2022-11-20T12:16:19;3.60;99.90
17346;DHT22;8790;53.590;10.002;2022-11-20T12:18:52;3.70;99.90
17346;DHT22;8790;53.590;10.002;2022-11-20T12:21:30;3.60;99.90
17346;DHT22;8790;53.590;10.002;2022-11-20T12:24:17;3.60;99.90
17346;DHT22;8790;53.590;10.002;2022-11-20T12:27:03;3.60;99.90
17346;DHT22;8790;53.590;10.002;2022-11-20T12:29:43;3.60;99.90
17346;DHT22;8790;53.590;10.002;2022-11-20T12:35:34;3.70;99.90
17346;DHT22;8790;53.590;10.002;2022-11-20T12:38:23;3.70;99.90
17346;DHT22;8790;53.590;10.002;2022-11-20T12:41:03;3.70;99.90
17346;DHT22;8790;53.590;10.002;2022-11-20T12:43:42;3.70;99.90
17346;DHT22;8790;53.590;10.002;2022-11-20T12:46:36;3.70;99.90
17346;DHT22;8790;53.590;10.002;2022-11-20T12:49:26;3.80;99.90
17346;DHT22;8790;53.590;10.002;2022-11-20T12:52:27;3.80;99.90
17346;DHT22;8790;53.590;10.002;2022-11-20T12:55:12;3.80;99.90
17346;DHT22;8790;53.590;10.002;2022-11-20T12:57:50;3.80;99.90
17346;DHT22;8790;53.590;10.002;2022-11-20T13:00:26;3.80;99.90
17346;DHT22;8790;53.590;10.002;2022-11-20T13:03:21;3.80;99.90
17346;DHT22;8790;53.590;10.002;2022-11-20T13:06:03;3.90;99.90
17346;DHT22;8790;53.590;10.002;2022-11-20T13:08:39;3.80;99.90
17346;DHT22;8790;53.590;10.002;2022-11-20T13:11:17;3.90;99.90
17346;DHT22;8790;53.590;10.002;2022-11-20T13:14:11;3.90;99.90
17346;DHT22;8790;53.590;10.002;2022-11-20T13:16:50;3.90;99.90
17346;DHT22;8790;53.590;10.002;2022-11-20T13:19:24;3.90;99.90
17346;DHT22;8790;53.590;10.002;2022-11-20T13:21:57;3.90;99.90
17346;DHT22;8790;53.590;10.002;2022-11-20T13:24:29;3.90;99.90
17346;DHT22;8790;53.590;10.002;2022-11-20T13:27:19;4.00;99.90
17346;DHT22;8790;53.590;10.002;2022-11-20T13:30:11;3.90;99.90
17346;DHT22;8790;53.590;10.002;2022-11-20T13:32:51;3.90;99.90
17346;DHT22;8790;53.590;10.002;2022-11-20T13:35:29;4.00;99.90
17346;DHT22;8790;53.590;10.002;2022-11-20T13:38:05;4.00;99.90
17346;DHT22;8790;53.590;10.002;2022-11-20T13:40:39;4.00;99.90
17346;DHT22;8790;53.590;10.002;2022-11-20T13:43:32;4.00;99.90
17346;DHT22;8790;53.590;10.002;2022-11-20T13:46:06;3.90;99.90
17346;DHT22;8790;53.590;10.002;2022-11-20T13:48:41;4.00;99.90
17346;DHT22;8790;53.590;10.002;2022-11-20T13:51:25;4.00;99.90
17346;DHT22;8790;53.590;10.002;2022-11-20T13:57:16;4.00;99.90
17346;DHT22;8790;53.590;10.002;2022-11-20T13:59:57;3.90;99.90
17346;DHT22;8790;53.590;10.002;2022-11-20T14:02:30;4.00;99.90
17346;DHT22;8790;53.590;10.002;2022-11-20T14:05:04;4.00;99.90
17346;DHT22;8790;53.590;10.002;2022-11-20T14:07:40;4.00;99.90
17346;DHT22;8790;53.590;10.002;2022-11-20T14:10:21;4.00;99.90
17346;DHT22;8790;53.590;10.002;2022-11-20T14:12:53;3.90;99.90
17346;DHT22;8790;53.590;10.002;2022-11-20T14:15:28;3.90;99.90
17346;DHT22;8790;53.590;10.002;2022-11-20T14:18:11;4.00;99.90
17346;DHT22;8790;53.590;10.002;2022-11-20T14:20:44;4.00;99.90
17346;DHT22;8790;53.590;10.002;2022-11-20T14:23:24;4.00;99.90
17346;DHT22;8790;53.590;10.002;2022-11-20T14:25:56;4.00;99.90
17346;DHT22;8790;53.590;10.002;2022-11-20T14:28:29;4.00;99.90
17346;DHT22;8790;53.590;10.002;2022-11-20T14:31:01;4.00;99.90
17346;DHT22;8790;53.590;10.002;2022-11-20T14:33:34;3.90;99.90
17346;DHT22;8790;53.590;10.002;2022-11-20T14:36:16;3.90;99.90
17346;DHT22;8790;53.590;10.002;2022-11-20T14:38:49;3.90;99.90
17346;DHT22;8790;53.590;10.002;2022-11-20T14:41:23;3.90;99.90
17346;DHT22;8790;53.590;10.002;2022-11-20T14:43:56;3.90;99.90
17346;DHT22;8790;53.590;10.002;2022-11-20T14:46:30;3.90;99.90
17346;DHT22;8790;53.590;10.002;2022-11-20T14:49:03;3.90;99.90
17346;DHT22;8790;53.590;10.002;2022-11-20T14:51:38;3.90;99.90
17346;DHT22;8790;53.590;10.002;2022-11-20T14:54:14;3.90;99.90
17346;DHT22;8790;53.590;10.002;2022-11-20T14:56:53;3.90;99.90
17346;DHT22;8790;53.590;10.002;2022-11-20T14:59:27;3.90;99.90
17346;DHT22;8790;53.590;10.002;2022-11-20T15:02:02;3.90;99.90
17346;DHT22;8790;53.590;10.002;2022-11-20T15:04:44;3.90;99.90
17346;DHT22;8790;53.590;10.002;2022-11-20T15:07:26;3.90;99.90
17346;DHT22;8790;53.590;10.002;2022-11-20T15:10:05;3.90;99.90
17346;DHT22;8790;53.590;10.002;2022-11-20T15:12:38;3.90;99.90
17346;DHT22;8790;53.590;10.002;2022-11-20T15:15:12;3.90;99.90
17346;DHT22;8790;53.590;10.002;2022-11-20T15:17:46;3.80;99.90
17346;DHT22;8790;53.590;10.002;2022-11-20T15:20:18;3.80;99.90
17346;DHT22;8790;53.590;10.002;2022-11-20T15:22:51;3.80;99.90
17346;DHT22;8790;53.590;10.002;2022-11-20T15:25:22;3.80;99.90
17346;DHT22;8790;53.590;10.002;2022-11-20T15:27:55;3.80;99.90
17346;DHT22;8790;53.590;10.002;2022-11-20T15:30:28;3.80;99.90
17346;DHT22;8790;53.590;10.002;2022-11-20T15:32:59;3.70;99.90
17346;DHT22;8790;53.590;10.002;2022-11-20T15:35:31;3.80;99.90
17346;DHT22;8790;53.590;10.002;2022-11-20T15:38:04;3.80;99.90
17346;DHT22;8790;53.590;10.002;2022-11-20T15:40:36;3.80;99.90
17346;DHT22;8790;53.590;10.002;2022-11-20T15:43:08;3.70;99.90
17346;DHT22;8790;53.590;10.002;2022-11-20T15:45:41;3.70;99.90
17346;DHT22;8790;53.590;10.002;2022-11-20T15:48:16;3.70;99.90
17346;DHT22;8790;53.590;10.002;2022-11-20T15:50:52;3.70;99.90
17346;DHT22;8790;53.590;10.002;2022-11-20T15:53:26;3.80;99.90
17346;DHT22;8790;53.590;10.002;2022-11-20T15:55:58;3.80;99.90
17346;DHT22;8790;53.590;10.002;2022-11-20T15:58:30;3.80;99.90
17346;DHT22;8790;53.590;10.002;2022-11-20T16:01:01;3.90;99.90
17346;DHT22;8790;53.590;10.002;2022-11-20T16:03:33;3.90;99.90
17346;DHT22;8790;53.590;10.002;2022-11-20T16:06:05;3.90;99.90
17346;DHT22;8790;53.590;10.002;2022-11-20T16:08:38;3.80;99.90
17346;DHT22;8790;53.590;10.002;2022-11-20T16:11:11;3.80;99.90
17346;DHT22;8790;53.590;10.002;2022-11-20T16:13:44;3.80;99.90
17346;DHT22;8790;53.590;10.002;2022-11-20T16:16:34;3.80;99.90
17346;DHT22;8790;53.590;10.002;2022-11-20T16:19:10;3.80;99.90
17346;DHT22;8790;53.590;10.002;2022-11-20T16:21:44;3.90;99.90
17346;DHT22;8790;53.590;10.002;2022-11-20T16:24:17;3.80;99.90
17346;DHT22;8790;53.590;10.002;2022-11-20T16:26:49;3.80;99.90
17346;DHT22;8790;53.590;10.002;2022-11-20T16:29:21;3.80;99.90
17346;DHT22;8790;53.590;10.002;2022-11-20T16:31:52;3.80;99.90
17346;DHT22;8790;53.590;10.002;2022-11-20T16:34:24;3.90;99.90
17346;DHT22;8790;53.590;10.002;2022-11-20T16:36:56;3.80;99.90
17346;DHT22;8790;53.590;10.002;2022-11-20T16:39:29;3.80;99.90